Time;durP1;ratioP1;P1;durP2;ratioP2;P2;SDS_P1;SDS_P2;PMS_P1;PMS_P2;Temp;Humidity;BMP_temperature;BMP_pressure;BME280_temperature;BME280_humidity;BME280_pressure;Samples;Min_cycle;Max_cycle;Signal;HPM_P1;HPM_P2
2022/12/03 00:00:38;;;;;;;36.63;22.03;;;0.70;99.90;;;;;;4913280;29;20209;-73
2022/12/03 00:03:04;;;;;;;33.63;21.07;;;0.80;99.90;;;;;;4912834;29;20661;-76
2022/12/03 00:05:32;;;;;;;32.57;21.60;;;0.70;99.90;;;;;;4912830;29;20772;-76
2022/12/03 00:07:59;;;;;;;33.53;21.57;;;0.70;99.90;;;;;;4909199;29;20690;-76
2022/12/03 00:10:27;;;;;;;35.30;21.53;;;0.70;99.90;;;;;;4912444;29;20620;-74
2022/12/03 00:12:54;;;;;;;33.67;21.20;;;0.80;99.90;;;;;;4911519;29;20772;-74
2022/12/03 00:15:21;;;;;;;32.77;20.53;;;0.70;99.90;;;;;;4912880;29;20936;-77
2022/12/03 00:17:48;;;;;;;33.73;21.00;;;0.70;99.90;;;;;;4912659;29;20252;-77
2022/12/03 00:20:19;;;;;;;36.27;22.50;;;0.70;99.90;;;;;;4912657;29;20256;-74
2022/12/03 00:22:46;;;;;;;32.70;21.33;;;0.70;99.90;;;;;;4912707;29;20296;-75
2022/12/03 00:25:12;;;;;;;33.93;20.40;;;0.70;99.90;;;;;;4912171;29;20205;-74
2022/12/03 00:27:41;;;;;;;32.27;21.40;;;0.70;99.90;;;;;;4912600;29;20298;-74
2022/12/03 00:30:10;;;;;;;30.43;20.57;;;0.70;99.90;;;;;;4912072;29;20739;-77
2022/12/03 00:32:37;;;;;;;30.17;20.77;;;0.70;99.90;;;;;;4912077;29;20240;-77
2022/12/03 00:35:04;;;;;;;32.57;21.07;;;0.70;99.90;;;;;;4911727;29;20247;-77
2022/12/03 00:37:31;;;;;;;35.87;21.23;;;0.70;99.90;;;;;;4912116;29;20292;-75
2022/12/03 00:39:58;;;;;;;31.13;20.30;;;0.70;99.90;;;;;;4911820;29;20307;-72
2022/12/03 00:42:25;;;;;;;33.60;20.67;;;0.70;99.90;;;;;;4906593;29;20251;-73
2022/12/03 00:44:53;;;;;;;28.63;19.80;;;0.60;99.90;;;;;;4893390;29;20300;-73
2022/12/03 00:47:20;;;;;;;30.83;19.60;;;0.60;99.90;;;;;;4898040;29;20735;-73
2022/12/03 00:49:47;;;;;;;31.73;20.33;;;0.60;99.90;;;;;;4911944;29;20240;-73
2022/12/03 00:52:13;;;;;;;31.37;19.70;;;0.60;99.90;;;;;;4912015;29;20238;-73
2022/12/03 00:54:40;;;;;;;30.67;20.67;;;0.60;99.90;;;;;;4911088;29;20833;-74
2022/12/03 00:57:07;;;;;;;33.03;20.43;;;0.70;99.90;;;;;;4911600;29;20213;-74
2022/12/03 00:59:34;;;;;;;31.33;21.40;;;0.60;99.90;;;;;;4912077;29;20206;-74
2022/12/03 01:02:02;;;;;;;29.20;19.73;;;0.60;99.90;;;;;;4911634;29;20292;-73
2022/12/03 01:04:30;;;;;;;29.40;20.10;;;0.60;99.90;;;;;;4911597;29;20217;-72
2022/12/03 01:06:56;;;;;;;29.83;19.97;;;0.60;99.90;;;;;;4911709;29;20336;-72
2022/12/03 01:09:23;;;;;;;32.80;21.03;;;0.60;99.90;;;;;;4911403;29;20240;-73
2022/12/03 01:11:50;;;;;;;31.00;20.20;;;0.70;99.90;;;;;;4911841;29;20272;-72
2022/12/03 01:14:19;;;;;;;28.63;19.87;;;0.60;99.90;;;;;;4911814;29;20299;-72
2022/12/03 01:16:46;;;;;;;33.30;20.87;;;0.60;99.90;;;;;;4911715;29;20307;-72
2022/12/03 01:19:15;;;;;;;30.13;20.10;;;0.60;99.90;;;;;;4911573;29;20331;-73
2022/12/03 01:21:42;;;;;;;31.27;20.47;;;0.60;99.90;;;;;;4909837;29;20596;-72
2022/12/03 01:24:09;;;;;;;30.30;19.87;;;0.60;99.90;;;;;;4911132;29;20308;-72
2022/12/03 01:26:36;;;;;;;28.30;20.70;;;0.60;99.90;;;;;;4911576;29;20354;-74
2022/12/03 01:29:04;;;;;;;27.17;19.27;;;0.50;99.90;;;;;;4906452;29;20212;-75
2022/12/03 01:34:16;;;;;;;32.97;20.97;;;0.50;99.90;;;;;;4892530;29;20576;-77
2022/12/03 01:36:43;;;;;;;26.80;19.10;;;0.50;99.90;;;;;;4910115;29;20296;-75
2022/12/03 01:39:10;;;;;;;28.13;19.00;;;0.50;99.90;;;;;;4911240;29;20223;-75
2022/12/03 01:41:38;;;;;;;26.30;18.80;;;0.50;99.90;;;;;;4911580;29;20307;-77
2022/12/03 01:44:13;;;;;;;31.07;20.77;;;0.50;99.90;;;;;;4911306;29;20304;-72
2022/12/03 01:46:42;;;;;;;28.53;20.20;;;0.50;99.90;;;;;;4911400;29;20292;-73
2022/12/03 01:49:15;;;;;;;30.50;20.60;;;0.60;99.90;;;;;;4898338;29;20731;-73
2022/12/03 01:51:43;;;;;;;31.27;20.43;;;0.60;99.90;;;;;;4911020;29;20682;-73
2022/12/03 01:54:16;;;;;;;32.67;20.77;;;0.60;99.90;;;;;;4910583;29;20208;-73
2022/12/03 01:56:43;;;;;;;33.17;20.50;;;0.60;99.90;;;;;;4911285;29;20252;-73
2022/12/03 01:59:14;;;;;;;30.73;21.10;;;0.60;99.90;;;;;;4910861;29;20223;-73
2022/12/03 02:01:41;;;;;;;31.57;20.33;;;0.60;99.90;;;;;;4911315;29;20300;-73
2022/12/03 02:04:12;;;;;;;29.40;21.57;;;0.60;99.90;;;;;;4911215;29;20209;-72
2022/12/03 02:06:38;;;;;;;31.83;21.63;;;0.60;99.90;;;;;;4913692;29;20287;-73
2022/12/03 02:09:07;;;;;;;35.03;21.97;;;0.60;99.90;;;;;;4914888;29;20228;-74
2022/12/03 02:11:37;;;;;;;31.60;22.60;;;0.60;99.90;;;;;;4914984;29;20219;-73
2022/12/03 02:14:10;;;;;;;34.83;21.50;;;0.60;99.90;;;;;;4914755;29;20285;-72
2022/12/03 02:16:38;;;;;;;33.27;22.37;;;0.50;99.90;;;;;;4914905;29;20288;-74
2022/12/03 02:19:15;;;;;;;30.60;21.10;;;0.60;99.90;;;;;;4914375;29;20770;-73
2022/12/03 02:21:47;;;;;;;30.57;20.30;;;0.50;99.90;;;;;;4906292;29;20755;-74
2022/12/03 02:24:22;;;;;;;30.93;21.47;;;0.50;99.90;;;;;;4914652;29;20295;-72
2022/12/03 02:26:51;;;;;;;30.90;21.30;;;0.50;99.90;;;;;;4914629;29;20216;-73
2022/12/03 02:29:18;;;;;;;34.10;22.40;;;0.50;99.90;;;;;;4914041;29;20244;-73
2022/12/03 02:31:45;;;;;;;32.83;21.90;;;0.60;99.90;;;;;;4914456;29;20601;-75
2022/12/03 02:34:33;;;;;;;31.47;22.10;;;0.50;99.90;;;;;;4914220;29;20219;-74
2022/12/03 02:37:00;;;;;;;33.60;20.40;;;0.60;99.90;;;;;;4911966;29;20645;-74
2022/12/03 02:39:27;;;;;;;30.53;21.60;;;0.50;99.90;;;;;;4895505;29;20321;-73
2022/12/03 02:44:40;;;;;;;31.03;21.60;;;0.50;99.90;;;;;;4895417;29;20215;-73
2022/12/03 02:47:07;;;;;;;31.87;20.83;;;0.50;99.90;;;;;;4912869;29;21051;-73
2022/12/03 02:49:34;;;;;;;31.20;21.90;;;0.50;99.90;;;;;;4914363;29;20247;-73
2022/12/03 02:52:01;;;;;;;30.40;20.70;;;0.40;99.90;;;;;;4914313;29;20236;-72
2022/12/03 02:54:28;;;;;;;37.00;22.07;;;0.40;99.90;;;;;;4913804;29;20260;-72
2022/12/03 02:56:56;;;;;;;34.67;20.97;;;0.50;99.90;;;;;;4914086;29;20316;-73
2022/12/03 02:59:23;;;;;;;30.17;20.70;;;0.40;99.90;;;;;;4914017;29;20308;-74
2022/12/03 03:01:50;;;;;;;31.73;21.30;;;0.50;99.90;;;;;;4913929;29;20215;-73
2022/12/03 03:04:17;;;;;;;34.17;22.23;;;0.40;99.90;;;;;;4914295;29;20347;-73
2022/12/03 03:06:45;;;;;;;32.87;20.60;;;0.40;99.90;;;;;;4913719;29;20692;-73
2022/12/03 03:09:12;;;;;;;36.33;21.90;;;0.40;99.90;;;;;;4913786;29;20201;-73
2022/12/03 03:11:39;;;;;;;31.43;21.00;;;0.50;99.90;;;;;;4913639;29;20299;-73
2022/12/03 03:14:07;;;;;;;33.07;21.57;;;0.40;99.90;;;;;;4913837;29;20573;-73
2022/12/03 03:16:34;;;;;;;29.03;20.90;;;0.40;99.90;;;;;;4913486;29;20807;-73
2022/12/03 03:19:02;;;;;;;33.67;20.57;;;0.30;99.90;;;;;;4913342;29;20205;-73
2022/12/03 03:21:29;;;;;;;29.37;20.43;;;0.40;99.90;;;;;;4905536;29;20228;-72
2022/12/03 03:23:56;;;;;;;31.23;21.47;;;0.40;99.90;;;;;;4913353;29;20216;-73
2022/12/03 03:26:23;;;;;;;28.90;20.17;;;0.40;99.90;;;;;;4913399;29;20229;-73
2022/12/03 03:28:51;;;;;;;28.77;19.83;;;0.40;99.90;;;;;;4913308;29;20221;-72
2022/12/03 03:31:22;;;;;;;31.73;20.67;;;0.40;99.90;;;;;;4913583;29;20217;-72
2022/12/03 03:33:50;;;;;;;29.50;20.30;;;0.40;99.90;;;;;;4913554;29;20252;-72
2022/12/03 03:36:17;;;;;;;29.00;20.20;;;0.40;99.90;;;;;;4913021;29;20677;-72
2022/12/03 03:38:44;;;;;;;30.90;20.07;;;0.40;99.90;;;;;;4913044;29;20751;-72
2022/12/03 03:41:13;;;;;;;31.53;20.07;;;0.50;99.90;;;;;;4912929;29;20590;-73
2022/12/03 03:43:41;;;;;;;34.30;21.50;;;0.40;99.90;;;;;;4913290;29;20347;-72
2022/12/03 03:46:09;;;;;;;33.30;21.00;;;0.40;99.90;;;;;;4913028;29;20208;-72
2022/12/03 03:48:40;;;;;;;34.23;21.33;;;0.40;99.90;;;;;;4913051;29;20209;-71
2022/12/03 03:51:08;;;;;;;32.07;21.13;;;0.50;99.90;;;;;;4912582;29;20793;-71
2022/12/03 03:53:35;;;;;;;29.83;19.57;;;0.50;99.90;;;;;;4912644;29;20236;-72
2022/12/03 03:56:03;;;;;;;31.53;20.43;;;0.50;99.90;;;;;;4912839;29;20205;-72
2022/12/03 03:58:29;;;;;;;30.00;20.97;;;0.50;99.90;;;;;;4912812;29;20221;-71
2022/12/03 04:00:56;;;;;;;35.27;21.63;;;0.50;99.90;;;;;;4912977;29;20213;-72
2022/12/03 04:03:23;;;;;;;32.87;21.07;;;0.50;99.90;;;;;;4912578;29;20253;-71
2022/12/03 04:05:51;;;;;;;33.10;21.13;;;0.40;99.90;;;;;;4912788;29;20680;-72
2022/12/03 04:08:18;;;;;;;32.80;20.40;;;0.40;99.90;;;;;;4903907;29;20335;-72
2022/12/03 04:13:30;;;;;;;29.53;20.23;;;0.40;99.90;;;;;;4912680;29;20232;-72
2022/12/03 04:15:56;;;;;;;30.57;21.13;;;0.40;99.90;;;;;;4912640;29;20231;-71
2022/12/03 04:23:54;;;;;;;34.67;20.83;;;0.40;99.90;;;;;;4912137;29;20678;-73
2022/12/03 04:29:05;;;;;;;30.93;21.17;;;0.40;99.90;;;;;;4911923;29;20204;-74
2022/12/03 04:37:03;;;;;;;33.03;21.30;;;0.40;99.90;;;;;;4893369;29;20217;-73
2022/12/03 04:39:30;;;;;;;33.67;21.53;;;0.40;99.90;;;;;;4893038;29;20224;-72
2022/12/03 04:41:57;;;;;;;34.53;22.03;;;0.40;99.90;;;;;;4898127;29;20211;-72
2022/12/03 04:44:34;;;;;;;32.90;21.77;;;0.40;99.90;;;;;;4912340;29;20244;-72
2022/12/03 04:47:02;;;;;;;35.10;22.00;;;0.40;99.90;;;;;;4912367;29;20201;-76
2022/12/03 04:49:29;;;;;;;33.70;21.07;;;0.30;99.90;;;;;;4912067;29;20311;-73
2022/12/03 04:51:56;;;;;;;31.73;21.13;;;0.30;99.90;;;;;;4912128;29;20715;-72
2022/12/03 04:54:24;;;;;;;32.97;21.03;;;0.30;99.90;;;;;;4911840;29;20850;-72
2022/12/03 04:56:51;;;;;;;30.83;21.87;;;0.30;99.90;;;;;;4912090;29;20223;-71
2022/12/03 04:59:20;;;;;;;31.77;21.13;;;0.30;99.90;;;;;;4912241;29;20308;-72
2022/12/03 05:01:47;;;;;;;33.13;21.33;;;0.30;99.90;;;;;;4912286;29;20291;-72
2022/12/03 05:04:14;;;;;;;31.00;20.73;;;0.40;99.90;;;;;;4912023;29;20308;-73
2022/12/03 05:06:42;;;;;;;33.10;21.30;;;0.40;99.90;;;;;;4911517;29;20664;-73
2022/12/03 05:09:09;;;;;;;31.53;20.97;;;0.30;99.90;;;;;;4911747;29;20201;-73
2022/12/03 05:11:37;;;;;;;33.30;20.67;;;0.40;99.90;;;;;;4912169;29;20224;-73
2022/12/03 05:14:04;;;;;;;30.20;20.23;;;0.40;99.90;;;;;;4911842;29;20769;-74
2022/12/03 05:16:31;;;;;;;33.83;21.17;;;0.40;99.90;;;;;;4912061;29;20288;-73
2022/12/03 05:18:58;;;;;;;35.17;21.77;;;0.40;99.90;;;;;;4911254;29;20295;-72
2022/12/03 05:21:25;;;;;;;35.57;21.33;;;0.40;99.90;;;;;;4911584;29;20538;-73
2022/12/03 05:23:52;;;;;;;32.27;21.23;;;0.40;99.90;;;;;;4911131;29;20276;-71
2022/12/03 05:26:19;;;;;;;30.33;20.53;;;0.40;99.90;;;;;;4911418;29;20312;-72
2022/12/03 05:28:47;;;;;;;33.43;19.53;;;0.40;99.90;;;;;;4911556;29;20209;-73
2022/12/03 05:31:14;;;;;;;28.93;20.27;;;0.40;99.90;;;;;;4911111;29;20211;-74
2022/12/03 05:33:41;;;;;;;32.40;20.60;;;0.40;99.90;;;;;;4911599;29;20232;-72
2022/12/03 05:36:09;;;;;;;37.07;21.17;;;0.40;99.90;;;;;;4910937;29;20219;-72
2022/12/03 05:38:36;;;;;;;29.87;20.63;;;0.40;99.90;;;;;;4911350;29;20213;-72
2022/12/03 05:42:52;;;;;;;30.27;20.40;;;0.30;99.90;;;;;;4910885;29;20213;-73
2022/12/03 05:43:50;;;;;;;29.83;21.10;;;0.40;99.90;;;;;;4910817;29;20221;-72
2022/12/03 05:46:17;;;;;;;32.10;21.30;;;0.30;99.90;;;;;;4911160;29;20679;-73
2022/12/03 05:48:44;;;;;;;35.90;21.77;;;0.30;99.90;;;;;;4911315;29;20215;-73
2022/12/03 05:51:11;;;;;;;36.17;22.13;;;0.30;99.90;;;;;;4896411;29;20312;-72
2022/12/03 05:53:37;;;;;;;37.43;21.83;;;0.40;99.90;;;;;;4900589;29;20324;-72
2022/12/03 05:56:05;;;;;;;33.20;21.37;;;0.30;99.90;;;;;;4910735;29;20309;-74
2022/12/03 05:58:32;;;;;;;34.93;21.93;;;0.30;99.90;;;;;;4910927;29;20696;-74
2022/12/03 06:01:00;;;;;;;28.73;20.37;;;0.30;99.90;;;;;;4892230;29;20233;-73
2022/12/03 06:03:27;;;;;;;30.60;21.13;;;0.30;99.90;;;;;;4890765;29;20303;-71
2022/12/03 06:05:54;;;;;;;36.53;23.20;;;0.30;99.90;;;;;;4899962;29;20300;-71
2022/12/03 06:08:21;;;;;;;30.00;20.47;;;0.30;99.90;;;;;;4901647;29;20724;-72
2022/12/03 06:10:47;;;;;;;32.73;21.93;;;0.30;99.90;;;;;;4900141;29;20307;-77
2022/12/03 06:13:14;;;;;;;38.10;23.30;;;0.30;99.90;;;;;;4900387;29;20233;-75
2022/12/03 06:15:41;;;;;;;35.23;23.43;;;0.30;99.90;;;;;;4903487;29;20315;-73
2022/12/03 06:18:09;;;;;;;35.63;22.53;;;0.30;99.90;;;;;;4906189;29;20312;-77
2022/12/03 06:20:36;;;;;;;34.03;21.70;;;0.30;99.90;;;;;;4901940;29;20210;-73
2022/12/03 06:23:03;;;;;;;34.70;22.97;;;0.20;99.90;;;;;;4910961;29;20281;-75
2022/12/03 06:25:30;;;;;;;38.87;22.80;;;0.30;99.90;;;;;;4900258;29;20316;-73
2022/12/03 06:27:57;;;;;;;33.87;22.20;;;0.20;99.90;;;;;;4908291;29;20201;-72
2022/12/03 06:30:24;;;;;;;38.07;23.23;;;0.20;99.90;;;;;;4907076;29;20301;-73
2022/12/03 06:32:51;;;;;;;42.03;24.40;;;0.20;99.90;;;;;;4907732;29;20787;-73
2022/12/03 06:35:19;;;;;;;35.50;23.10;;;0.20;99.90;;;;;;4904739;29;20237;-81
2022/12/03 06:37:46;;;;;;;34.27;22.77;;;0.20;99.90;;;;;;4900962;29;20293;-74
2022/12/03 06:40:15;;;;;;;38.20;23.83;;;0.20;99.90;;;;;;4902072;29;20253;-73
2022/12/03 06:42:43;;;;;;;36.13;22.17;;;0.20;99.90;;;;;;4903453;29;20669;-73
2022/12/03 06:45:10;;;;;;;38.53;24.20;;;0.20;99.90;;;;;;4907029;29;20252;-73
2022/12/03 06:47:37;;;;;;;34.57;22.00;;;0.20;99.90;;;;;;4907938;29;20215;-73
2022/12/03 06:50:05;;;;;;;35.33;22.17;;;0.20;99.90;;;;;;4909898;29;20558;-76
2022/12/03 06:52:34;;;;;;;35.43;21.63;;;0.10;99.90;;;;;;4910795;29;20251;-72
2022/12/03 06:55:01;;;;;;;34.97;22.70;;;0.20;99.90;;;;;;4911289;29;20237;-72
2022/12/03 06:57:28;;;;;;;35.43;21.87;;;0.20;99.90;;;;;;4902489;29;20237;-72
2022/12/03 06:59:55;;;;;;;34.97;22.27;;;0.10;99.90;;;;;;4907883;29;20213;-73
2022/12/03 07:02:22;;;;;;;34.30;22.57;;;0.10;99.90;;;;;;4912072;29;20217;-73
2022/12/03 07:04:48;;;;;;;35.57;23.37;;;0.10;99.90;;;;;;4911964;29;20300;-76
2022/12/03 07:07:15;;;;;;;34.63;22.43;;;0.10;99.90;;;;;;4911178;29;20244;-76
2022/12/03 07:09:43;;;;;;;33.87;22.00;;;0.10;99.90;;;;;;4902536;29;21052;-74
2022/12/03 07:12:10;;;;;;;32.47;22.07;;;0.10;99.90;;;;;;4901555;29;20217;-73
2022/12/03 07:14:37;;;;;;;35.03;22.20;;;0.10;99.90;;;;;;4911421;29;20352;-72
2022/12/03 07:17:04;;;;;;;42.13;23.20;;;0.10;99.90;;;;;;4904514;29;20202;-73
2022/12/03 07:19:31;;;;;;;35.63;23.57;;;0.20;99.90;;;;;;4901902;29;20575;-76
2022/12/03 07:21:58;;;;;;;35.83;22.77;;;0.10;99.90;;;;;;4907274;29;20240;-74
2022/12/03 07:24:25;;;;;;;35.03;22.47;;;0.10;99.90;;;;;;4897015;29;20319;-74
2022/12/03 07:26:53;;;;;;;37.93;22.90;;;0.20;99.90;;;;;;4900475;29;20295;-76
2022/12/03 07:29:20;;;;;;;37.67;23.17;;;0.20;99.90;;;;;;4901642;29;21004;-72
2022/12/03 07:31:47;;;;;;;32.93;22.00;;;0.20;99.90;;;;;;4906984;29;20224;-74
2022/12/03 07:34:14;;;;;;;36.23;23.00;;;0.20;99.90;;;;;;4894704;29;20272;-73
2022/12/03 07:36:40;;;;;;;43.40;24.67;;;0.30;99.90;;;;;;4897098;29;20308;-73
2022/12/03 07:39:07;;;;;;;36.07;22.23;;;0.30;99.90;;;;;;4893016;29;20309;-72
2022/12/03 07:41:34;;;;;;;36.57;23.30;;;0.30;99.90;;;;;;4893492;29;20213;-72
2022/12/03 07:44:02;;;;;;;39.37;23.77;;;0.40;99.90;;;;;;4906693;29;20236;-73
2022/12/03 07:46:29;;;;;;;37.47;23.97;;;0.50;99.90;;;;;;4911975;29;20304;-72
2022/12/03 07:48:59;;;;;;;39.90;23.73;;;0.40;99.90;;;;;;4911537;29;20299;-72
2022/12/03 07:51:26;;;;;;;36.57;23.07;;;0.40;99.90;;;;;;4901724;29;20252;-71
2022/12/03 07:53:53;;;;;;;36.03;22.73;;;0.30;99.90;;;;;;4912838;29;20667;-72
2022/12/03 07:56:20;;;;;;;33.07;22.10;;;0.20;99.90;;;;;;4913127;29;20209;-73
2022/12/03 07:58:47;;;;;;;35.57;23.17;;;0.20;99.90;;;;;;4912967;29;20694;-73
2022/12/03 08:01:15;;;;;;;37.50;23.47;;;0.20;99.90;;;;;;4913110;29;20295;-75
2022/12/03 08:03:43;;;;;;;38.63;24.60;;;0.20;99.90;;;;;;4911704;29;20213;-74
2022/12/03 08:06:09;;;;;;;39.13;23.37;;;0.20;99.90;;;;;;4912277;29;20209;-74
2022/12/03 08:08:36;;;;;;;37.83;23.97;;;0.20;99.90;;;;;;4912283;29;20269;-73
2022/12/03 08:11:03;;;;;;;37.73;24.20;;;0.20;99.90;;;;;;4912400;29;20208;-72
2022/12/03 08:13:33;;;;;;;35.70;23.13;;;0.20;99.90;;;;;;4912561;29;20339;-74
2022/12/03 08:16:08;;;;;;;38.03;22.57;;;0.20;99.90;;;;;;4912739;29;20255;-74
2022/12/03 08:18:37;;;;;;;39.17;23.63;;;0.20;99.90;;;;;;4912427;29;20252;-73
2022/12/03 08:21:09;;;;;;;36.90;23.60;;;0.20;99.90;;;;;;4904271;29;20287;-75
2022/12/03 08:23:36;;;;;;;37.37;23.73;;;0.20;99.90;;;;;;4912834;29;20197;-73
2022/12/03 08:26:12;;;;;;;35.43;24.13;;;0.20;99.90;;;;;;4911794;29;20219;-72
2022/12/03 08:28:39;;;;;;;35.13;23.00;;;0.20;99.90;;;;;;4912408;29;20555;-74
2022/12/03 08:31:18;;;;;;;33.40;23.23;;;0.20;99.90;;;;;;4911823;29;20680;-73
2022/12/03 08:33:48;;;;;;;33.00;22.43;;;0.20;99.90;;;;;;4911687;29;20236;-73
2022/12/03 08:36:19;;;;;;;37.93;24.60;;;0.20;99.90;;;;;;4911984;29;20973;-73
2022/12/03 08:38:50;;;;;;;38.27;23.80;;;0.20;99.90;;;;;;4912357;29;20201;-72
2022/12/03 08:44:15;;;;;;;39.80;24.13;;;0.30;99.90;;;;;;4911725;29;20304;-73
2022/12/03 08:46:42;;;;;;;38.03;23.47;;;0.20;99.90;;;;;;4912214;29;20241;-73
2022/12/03 08:49:10;;;;;;;40.70;24.67;;;0.20;99.90;;;;;;4893072;29;20305;-72
2022/12/03 08:51:37;;;;;;;43.03;23.70;;;0.20;99.90;;;;;;4911642;29;20307;-72
2022/12/03 08:54:11;;;;;;;37.60;23.97;;;0.20;99.90;;;;;;4911679;29;20315;-72
2022/12/03 08:56:39;;;;;;;36.33;23.70;;;0.20;99.90;;;;;;4912278;29;20196;-74
2022/12/03 08:59:24;;;;;;;38.17;24.60;;;0.20;99.90;;;;;;4912000;29;20287;-73
2022/12/03 09:01:52;;;;;;;34.03;22.83;;;0.20;99.90;;;;;;4912366;29;20260;-72
2022/12/03 09:04:30;;;;;;;38.27;23.07;;;0.20;99.90;;;;;;4911988;29;20220;-75
2022/12/03 09:06:58;;;;;;;38.53;23.03;;;0.20;99.90;;;;;;4911605;29;20319;-72
2022/12/03 09:09:25;;;;;;;40.17;24.27;;;0.20;99.90;;;;;;4912019;29;20285;-72
2022/12/03 09:11:52;;;;;;;38.17;23.23;;;0.20;99.90;;;;;;4912047;29;20237;-72
2022/12/03 09:14:21;;;;;;;39.87;24.70;;;0.20;99.90;;;;;;4911236;29;20232;-73
2022/12/03 09:16:48;;;;;;;42.33;25.33;;;0.20;99.90;;;;;;4911998;29;20241;-72
2022/12/03 09:19:15;;;;;;;41.27;24.97;;;0.20;99.90;;;;;;4911460;29;20304;-73
2022/12/03 09:21:44;;;;;;;37.07;24.13;;;0.20;99.90;;;;;;4903287;29;20240;-73
2022/12/03 09:24:11;;;;;;;40.47;24.40;;;0.20;99.90;;;;;;4911209;29;20452;-73
2022/12/03 09:26:38;;;;;;;38.97;24.77;;;0.20;99.90;;;;;;4911598;29;20739;-72
2022/12/03 09:29:05;;;;;;;37.50;23.83;;;0.30;99.90;;;;;;4911234;29;20249;-72
2022/12/03 09:31:33;;;;;;;42.23;24.07;;;0.20;99.90;;;;;;4891237;29;20316;-73
2022/12/03 09:34:01;;;;;;;39.93;23.50;;;0.20;99.90;;;;;;4892590;29;20237;-73
2022/12/03 09:36:28;;;;;;;39.27;25.17;;;0.20;99.90;;;;;;4901609;29;20296;-72
2022/12/03 09:38:57;;;;;;;39.97;24.73;;;0.30;99.90;;;;;;4911191;29;20639;-73
2022/12/03 09:41:24;;;;;;;40.00;25.63;;;0.30;99.90;;;;;;4911266;29;20213;-75
2022/12/03 09:43:53;;;;;;;41.10;25.60;;;0.40;99.90;;;;;;4910920;29;20695;-73
2022/12/03 09:46:21;;;;;;;42.50;25.37;;;0.40;99.90;;;;;;4911527;29;20664;-73
2022/12/03 09:48:48;;;;;;;42.67;25.00;;;0.40;99.90;;;;;;4911134;29;20647;-73
2022/12/03 09:51:15;;;;;;;41.87;24.53;;;0.50;99.90;;;;;;4910728;29;20587;-73
2022/12/03 09:53:42;;;;;;;42.77;25.20;;;0.50;99.90;;;;;;4911349;29;20296;-72
2022/12/03 09:56:18;;;;;;;43.97;25.67;;;0.60;99.90;;;;;;4910427;29;20204;-72
2022/12/03 09:58:48;;;;;;;39.70;25.70;;;0.60;99.90;;;;;;4911641;29;20209;-72
2022/12/03 10:01:15;;;;;;;41.77;25.53;;;0.70;99.90;;;;;;4910938;29;20236;-72
2022/12/03 10:03:47;;;;;;;40.73;25.70;;;0.70;99.90;;;;;;4911189;29;20213;-76
2022/12/03 10:06:18;;;;;;;42.77;25.40;;;0.70;99.90;;;;;;4910966;29;20291;-74
2022/12/03 10:08:48;;;;;;;41.23;25.53;;;0.70;99.90;;;;;;4911052;29;20271;-73
2022/12/03 10:11:19;;;;;;;42.00;25.13;;;0.70;99.90;;;;;;4910644;29;20213;-72
2022/12/03 10:13:49;;;;;;;43.47;25.00;;;0.70;99.90;;;;;;4911220;29;20213;-72
2022/12/03 10:16:19;;;;;;;37.60;24.37;;;0.70;99.90;;;;;;4911020;29;20197;-73
2022/12/03 10:18:50;;;;;;;40.37;24.53;;;0.60;99.90;;;;;;4911295;29;20249;-73
2022/12/03 10:21:20;;;;;;;39.70;24.17;;;0.60;99.90;;;;;;4902946;29;20208;-73
2022/12/03 10:23:49;;;;;;;36.90;23.87;;;0.60;99.90;;;;;;4911636;29;20251;-73
2022/12/03 10:26:17;;;;;;;44.53;23.80;;;0.60;99.90;;;;;;4911062;29;20667;-72
2022/12/03 10:28:46;;;;;;;41.30;24.93;;;0.50;99.90;;;;;;4914409;29;20209;-72
2022/12/03 10:31:14;;;;;;;41.10;24.37;;;0.60;99.90;;;;;;4914056;29;20700;-73
2022/12/03 10:33:43;;;;;;;37.13;24.30;;;0.60;99.90;;;;;;4914406;29;20213;-73
2022/12/03 10:36:22;;;;;;;37.60;24.00;;;0.50;99.90;;;;;;4914610;29;20235;-72
2022/12/03 10:39:07;;;;;;;38.83;23.13;;;0.60;99.90;;;;;;4914398;29;20204;-73
2022/12/03 10:41:36;;;;;;;39.80;22.63;;;0.50;99.90;;;;;;4913946;29;20324;-72
2022/12/03 10:44:16;;;;;;;40.07;24.57;;;0.50;99.90;;;;;;4914064;29;20241;-71
2022/12/03 10:46:44;;;;;;;36.80;22.73;;;0.40;99.90;;;;;;4914527;29;20197;-72
2022/12/03 10:49:15;;;;;;;42.00;24.13;;;0.50;99.90;;;;;;4895681;29;20237;-73
2022/12/03 10:51:43;;;;;;;40.90;22.77;;;0.50;99.90;;;;;;4914346;29;20205;-72
2022/12/03 10:54:17;;;;;;;39.90;23.77;;;0.50;99.90;;;;;;4914095;29;20242;-73
2022/12/03 10:56:46;;;;;;;39.03;23.20;;;0.50;99.90;;;;;;4914324;29;20236;-72
2022/12/03 10:59:17;;;;;;;40.67;24.17;;;0.50;99.90;;;;;;4914042;29;20292;-72
2022/12/03 11:01:44;;;;;;;39.17;23.80;;;0.50;99.90;;;;;;4914361;29;20209;-72
2022/12/03 11:04:20;;;;;;;42.47;24.43;;;0.50;99.90;;;;;;4913500;29;20966;-74
2022/12/03 11:06:48;;;;;;;45.37;23.90;;;0.50;99.90;;;;;;4914036;29;20193;-73
2022/12/03 11:09:19;;;;;;;39.87;23.30;;;0.50;99.90;;;;;;4914075;29;20243;-72
2022/12/03 11:11:48;;;;;;;41.57;24.20;;;0.50;99.90;;;;;;4913800;29;20743;-72
2022/12/03 11:14:53;;;;;;;38.77;24.50;;;0.50;99.90;;;;;;4913718;29;20236;-72
2022/12/03 11:17:40;;;;;;;38.53;22.70;;;0.50;99.90;;;;;;4913711;29;20299;-72
2022/12/03 11:20:10;;;;;;;40.27;23.50;;;0.60;99.90;;;;;;4913591;29;20251;-72
2022/12/03 11:22:43;;;;;;;38.67;23.03;;;0.60;99.90;;;;;;4913394;29;20296;-71
2022/12/03 11:25:53;;;;;;;40.20;23.50;;;0.60;99.90;;;;;;4912936;29;20624;-72
2022/12/03 11:28:35;;;;;;;41.00;22.27;;;0.60;99.90;;;;;;4900589;29;20312;-72
2022/12/03 11:31:08;;;;;;;41.77;22.77;;;0.60;99.90;;;;;;4913363;29;20328;-72
2022/12/03 11:33:37;;;;;;;37.70;22.40;;;0.60;99.90;;;;;;4913542;29;20232;-72
2022/12/03 11:36:14;;;;;;;36.80;21.70;;;0.70;99.90;;;;;;4913258;29;20268;-72
2022/12/03 11:38:53;;;;;;;38.50;22.17;;;0.70;99.90;;;;;;4894585;29;20288;-72
2022/12/03 11:41:23;;;;;;;37.87;21.70;;;0.70;99.90;;;;;;4909407;29;20280;-73
2022/12/03 11:44:06;;;;;;;35.60;22.03;;;0.60;99.90;;;;;;4913661;29;20224;-72
2022/12/03 11:46:42;;;;;;;40.50;22.10;;;0.60;99.90;;;;;;4913482;29;20273;-72
2022/12/03 11:49:36;;;;;;;36.50;21.23;;;0.60;99.90;;;;;;4909145;29;20287;-72
2022/12/03 11:52:17;;;;;;;38.63;22.30;;;0.70;99.90;;;;;;4910244;29;20235;-71
2022/12/03 11:54:46;;;;;;;38.70;22.40;;;0.70;99.90;;;;;;4912315;29;20677;-74
2022/12/03 11:57:30;;;;;;;39.13;22.10;;;0.70;99.90;;;;;;4912987;29;20216;-73
2022/12/03 12:00:00;;;;;;;38.10;21.40;;;0.70;99.90;;;;;;4913023;29;20720;-73
2022/12/03 12:02:27;;;;;;;38.40;21.43;;;0.70;99.90;;;;;;4913268;29;20205;-73
2022/12/03 12:04:56;;;;;;;39.90;22.60;;;0.70;99.90;;;;;;4912823;29;20598;-72
2022/12/03 12:07:35;;;;;;;42.63;24.30;;;0.60;99.90;;;;;;4912661;29;20348;-72
2022/12/03 12:10:03;;;;;;;37.10;22.60;;;0.60;99.90;;;;;;4912433;29;20662;-72
2022/12/03 12:12:36;;;;;;;39.70;21.83;;;0.60;99.90;;;;;;4912914;29;20313;-72
2022/12/03 12:15:34;;;;;;;41.17;23.40;;;0.60;99.90;;;;;;4912340;29;21090;-72
2022/12/03 12:18:34;;;;;;;38.20;22.73;;;0.60;99.90;;;;;;4902258;29;20216;-71
2022/12/03 12:21:34;;;;;;;37.60;22.20;;;0.60;99.90;;;;;;4912063;29;20237;-72
2022/12/03 12:24:31;;;;;;;37.00;20.57;;;0.70;99.90;;;;;;4912052;29;20703;-73
2022/12/03 12:27:00;;;;;;;35.63;21.50;;;0.70;99.90;;;;;;4912602;29;20219;-72
2022/12/03 12:29:27;;;;;;;43.33;22.57;;;0.70;99.90;;;;;;4912167;29;20327;-72
2022/12/03 12:32:02;;;;;;;39.07;22.43;;;0.70;99.90;;;;;;4912308;29;20232;-73
2022/12/03 12:34:29;;;;;;;38.43;21.60;;;0.60;99.90;;;;;;4895401;29;20680;-72
2022/12/03 12:36:57;;;;;;;36.80;20.73;;;0.70;99.90;;;;;;4893366;29;20210;-72
2022/12/03 12:39:25;;;;;;;37.43;21.47;;;0.70;99.90;;;;;;4893447;29;20334;-73
2022/12/03 12:41:54;;;;;;;36.20;20.60;;;0.70;99.90;;;;;;4908401;29;20684;-72
2022/12/03 12:44:25;;;;;;;34.27;20.30;;;0.70;99.90;;;;;;4905459;29;20206;-73
2022/12/03 12:46:56;;;;;;;33.97;20.43;;;0.70;99.90;;;;;;4893323;29;20213;-72
2022/12/03 12:49:25;;;;;;;36.13;20.87;;;0.70;99.90;;;;;;4893725;29;20229;-72
2022/12/03 12:51:54;;;;;;;34.20;19.83;;;0.70;99.90;;;;;;4912080;29;20307;-73
2022/12/03 12:54:21;;;;;;;36.37;20.30;;;0.70;99.90;;;;;;4912224;29;20216;-73
2022/12/03 12:56:50;;;;;;;32.00;19.77;;;0.70;99.90;;;;;;4912077;29;20956;-73
2022/12/03 12:59:19;;;;;;;34.13;19.60;;;0.70;99.90;;;;;;4912389;29;20595;-73
2022/12/03 13:01:47;;;;;;;38.40;20.80;;;0.80;99.90;;;;;;4911996;29;20220;-72
2022/12/03 13:04:16;;;;;;;34.37;20.27;;;0.70;99.90;;;;;;4911648;29;20223;-72
2022/12/03 13:06:46;;;;;;;38.73;21.10;;;0.70;99.90;;;;;;4912164;29;20228;-72
2022/12/03 13:09:16;;;;;;;37.03;20.53;;;0.80;99.90;;;;;;4912078;29;20284;-73
2022/12/03 13:11:45;;;;;;;36.60;20.97;;;0.80;99.90;;;;;;4911772;29;20260;-73